Time;durP1;ratioP1;P1;durP2;ratioP2;P2;SDS_P1;SDS_P2;PMS_P1;PMS_P2;Temp;Humidity;BMP_temperature;BMP_pressure;BME280_temperature;BME280_humidity;BME280_pressure;Samples;Min_cycle;Max_cycle;Signal;HPM_P1;HPM_P2
2024/04/16 00:01:24;;;;;;;4.10;1.27;;;7.00;92.40;;;;;;5394787;26;20010;-60
2024/04/16 00:03:49;;;;;;;1.80;1.30;;;7.00;92.20;;;;;;5395664;26;19995;-59
2024/04/16 00:06:15;;;;;;;1.83;1.35;;;7.00;92.30;;;;;;5398835;26;20455;-60
2024/04/16 00:08:40;;;;;;;2.20;1.25;;;7.00;92.10;;;;;;5394601;26;19995;-60
2024/04/16 00:11:06;;;;;;;1.83;1.40;;;7.00;92.10;;;;;;5396595;26;21059;-61
2024/04/16 00:13:31;;;;;;;2.17;1.10;;;7.00;92.50;;;;;;5396039;26;20041;-60
2024/04/16 00:15:58;;;;;;;2.53;1.40;;;7.00;92.70;;;;;;5395907;26;20024;-60
2024/04/16 00:18:23;;;;;;;2.03;1.23;;;7.00;92.60;;;;;;5395259;26;20009;-56
2024/04/16 00:20:49;;;;;;;1.60;1.38;;;7.00;92.40;;;;;;5396010;26;19995;-58
2024/04/16 00:23:15;;;;;;;5.22;1.30;;;7.00;92.20;;;;;;5391698;26;20355;-58
2024/04/16 00:25:40;;;;;;;1.70;1.20;;;7.00;92.50;;;;;;5396083;26;20000;-58
2024/04/16 00:28:06;;;;;;;2.65;1.30;;;7.00;92.00;;;;;;5395731;26;20913;-55
2024/04/16 00:30:31;;;;;;;5.93;1.65;;;7.00;91.90;;;;;;5396760;26;20431;-57
2024/04/16 00:32:57;;;;;;;7.43;1.48;;;7.00;91.40;;;;;;5396443;26;20039;-57
2024/04/16 00:35:22;;;;;;;5.82;1.55;;;7.00;91.60;;;;;;5396124;26;19995;-57
2024/04/16 00:37:48;;;;;;;2.08;1.42;;;6.90;91.60;;;;;;5391353;26;19996;-57
2024/04/16 00:40:13;;;;;;;2.85;1.40;;;6.90;91.20;;;;;;5388666;26;20011;-57
2024/04/16 00:42:39;;;;;;;7.05;1.65;;;6.90;91.00;;;;;;5394291;26;20498;-54
2024/04/16 00:45:09;;;;;;;5.65;1.65;;;6.90;91.10;;;;;;5394179;26;20005;-57
2024/04/16 00:47:35;;;;;;;4.72;2.00;;;6.90;91.10;;;;;;5396781;26;19999;-57
2024/04/16 00:50:01;;;;;;;3.65;1.42;;;6.90;91.00;;;;;;5388527;26;20035;-57
2024/04/16 00:52:27;;;;;;;4.07;2.03;;;6.90;91.20;;;;;;5398334;26;20007;-57
2024/04/16 00:54:53;;;;;;;4.75;2.00;;;6.90;91.10;;;;;;5391446;26;19999;-57
2024/04/16 00:57:20;;;;;;;2.97;1.85;;;6.90;91.00;;;;;;5393785;26;20452;-57
2024/04/16 00:59:48;;;;;;;4.13;2.20;;;6.80;91.00;;;;;;5396195;26;20336;-56
2024/04/16 01:02:13;;;;;;;2.60;2.10;;;6.90;90.80;;;;;;5395353;26;20025;-57
2024/04/16 01:04:39;;;;;;;7.15;2.58;;;6.80;91.00;;;;;;5395512;26;20456;-57
2024/04/16 01:07:04;;;;;;;4.85;2.30;;;6.90;91.00;;;;;;5396094;26;20019;-57
2024/04/16 01:09:30;;;;;;;4.72;2.95;;;6.90;91.00;;;;;;5395495;26;20459;-57
2024/04/16 01:11:58;;;;;;;4.60;2.67;;;6.80;91.00;;;;;;5398766;26;20000;-56
2024/04/16 01:14:24;;;;;;;4.60;2.72;;;6.80;90.90;;;;;;5392034;26;20076;-57
2024/04/16 01:16:50;;;;;;;6.68;2.97;;;6.80;90.90;;;;;;5394910;26;20011;-56
2024/04/16 01:19:15;;;;;;;6.70;2.55;;;6.80;91.10;;;;;;5395604;26;20004;-58
2024/04/16 01:21:40;;;;;;;5.82;2.83;;;6.80;91.10;;;;;;5395585;26;20014;-58
2024/04/16 01:24:06;;;;;;;3.90;2.47;;;6.80;90.80;;;;;;5395106;26;20019;-57
2024/04/16 01:26:32;;;;;;;6.63;2.85;;;6.80;90.80;;;;;;5394476;26;20021;-55
2024/04/16 01:28:57;;;;;;;9.32;3.58;;;6.80;90.80;;;;;;5398377;26;20019;-57
2024/04/16 01:31:24;;;;;;;5.90;2.97;;;6.80;90.70;;;;;;5387742;26;20019;-58
2024/04/16 01:33:50;;;;;;;6.50;3.05;;;6.80;90.70;;;;;;5395636;26;19996;-57
2024/04/16 01:36:15;;;;;;;6.07;3.15;;;6.90;90.50;;;;;;5395396;26;20093;-56
2024/04/16 01:38:41;;;;;;;6.65;3.25;;;6.90;90.60;;;;;;5387250;26;20018;-57
2024/04/16 01:41:06;;;;;;;9.18;3.53;;;6.80;90.50;;;;;;5395117;26;20014;-57
2024/04/16 01:43:32;;;;;;;5.20;2.58;;;6.80;90.80;;;;;;5395279;26;20487;-56
2024/04/16 01:45:57;;;;;;;8.75;3.65;;;6.80;90.50;;;;;;5397435;26;19996;-57
2024/04/16 01:48:23;;;;;;;5.38;3.20;;;6.80;90.50;;;;;;5395069;26;20018;-57
2024/04/16 01:50:50;;;;;;;5.35;3.78;;;6.80;90.20;;;;;;5395306;26;20007;-57
2024/04/16 01:53:17;;;;;;;6.45;3.40;;;6.80;90.20;;;;;;5394821;26;20487;-57
2024/04/16 01:55:42;;;;;;;5.03;3.08;;;6.80;90.20;;;;;;5394682;26;20026;-56
2024/04/16 01:58:08;;;;;;;7.85;3.40;;;6.80;90.00;;;;;;5395284;26;20065;-56
2024/04/16 02:00:33;;;;;;;4.18;3.55;;;6.80;89.50;;;;;;5397287;26;20007;-57
2024/04/16 02:03:01;;;;;;;6.70;3.78;;;6.80;89.20;;;;;;5395112;26;19996;-56
2024/04/16 02:05:26;;;;;;;5.95;3.58;;;6.80;88.40;;;;;;5394838;26;20484;-58
2024/04/16 02:07:52;;;;;;;6.05;3.30;;;6.80;87.80;;;;;;5394444;26;20039;-58
2024/04/16 02:10:17;;;;;;;7.57;3.70;;;6.80;87.90;;;;;;5395125;26;19999;-56
2024/04/16 02:12:43;;;;;;;7.78;3.30;;;6.80;87.20;;;;;;5394589;26;20000;-56
2024/04/16 02:15:08;;;;;;;5.65;3.22;;;6.80;86.80;;;;;;5397292;26;20388;-57
2024/04/16 02:17:34;;;;;;;7.25;3.65;;;6.80;87.10;;;;;;5394716;26;19995;-57
2024/04/16 02:19:59;;;;;;;7.07;2.90;;;6.80;86.90;;;;;;5394765;26;19996;-58
2024/04/16 02:22:25;;;;;;;8.85;3.25;;;6.80;87.00;;;;;;5393980;26;20000;-57
2024/04/16 02:24:50;;;;;;;7.57;3.60;;;6.80;86.70;;;;;;5394622;26;19999;-58
2024/04/16 02:27:16;;;;;;;4.35;2.88;;;6.80;86.50;;;;;;5397198;26;20008;-58
2024/04/16 02:29:41;;;;;;;4.55;3.25;;;6.80;86.10;;;;;;5394109;26;20011;-58
2024/04/16 02:32:07;;;;;;;7.57;3.33;;;6.80;86.00;;;;;;5394308;26;20007;-58
2024/04/16 02:34:32;;;;;;;7.13;3.00;;;6.80;85.60;;;;;;5394372;26;20572;-55
2024/04/16 02:36:58;;;;;;;5.93;2.88;;;6.70;85.40;;;;;;5394113;26;20520;-57
2024/04/16 02:39:24;;;;;;;7.13;2.63;;;6.70;85.30;;;;;;5388247;26;19999;-57
2024/04/16 02:41:49;;;;;;;7.68;2.78;;;6.70;85.20;;;;;;5398078;26;20092;-57
2024/04/16 02:44:15;;;;;;;7.55;3.35;;;6.70;84.90;;;;;;5400239;26;20046;-57
2024/04/16 02:46:40;;;;;;;5.85;3.45;;;6.70;84.50;;;;;;5397468;26;19999;-57
2024/04/16 02:49:06;;;;;;;5.43;2.85;;;6.70;83.90;;;;;;5397945;26;20145;-57
2024/04/16 02:51:31;;;;;;;5.32;3.28;;;6.60;83.70;;;;;;5397305;26;20440;-57
2024/04/16 02:53:57;;;;;;;4.88;3.47;;;6.60;82.90;;;;;;5397691;26;20035;-57
2024/04/16 02:56:22;;;;;;;7.20;2.83;;;6.60;82.70;;;;;;5397766;26;20362;-57
2024/04/16 02:58:48;;;;;;;5.85;2.67;;;6.60;82.70;;;;;;5399903;26;20004;-55
2024/04/16 03:01:13;;;;;;;4.72;2.65;;;6.60;82.80;;;;;;5397695;26;20022;-56
2024/04/16 03:03:39;;;;;;;8.20;3.60;;;6.60;82.80;;;;;;5397695;26;20010;-57
2024/04/16 03:06:05;;;;;;;5.60;3.05;;;6.60;82.70;;;;;;5396908;26;20012;-57
2024/04/16 03:08:30;;;;;;;5.10;3.13;;;6.60;82.60;;;;;;5397484;26;20032;-57
2024/04/16 03:11:00;;;;;;;5.65;2.85;;;6.50;82.00;;;;;;5397829;26;20011;-58
2024/04/16 03:13:25;;;;;;;5.03;2.65;;;6.50;81.60;;;;;;5397348;26;20014;-57
2024/04/16 03:15:51;;;;;;;6.30;3.30;;;6.50;81.80;;;;;;5400328;26;20436;-57
2024/04/16 03:18:17;;;;;;;6.28;3.25;;;6.50;81.80;;;;;;5392958;26;19995;-57
2024/04/16 03:20:42;;;;;;;5.57;2.50;;;6.40;81.50;;;;;;5395175;26;20451;-57
2024/04/16 03:23:08;;;;;;;4.32;2.75;;;6.40;81.20;;;;;;5397103;26;19999;-58
2024/04/16 03:25:40;;;;;;;7.05;2.58;;;6.30;81.10;;;;;;5396668;26;20030;-56
2024/04/16 03:28:05;;;;;;;5.78;2.20;;;6.20;81.40;;;;;;5397276;26;20003;-57
2024/04/16 03:30:31;;;;;;;4.10;2.58;;;6.20;81.60;;;;;;5397367;26;20429;-57
2024/04/16 03:32:57;;;;;;;3.78;3.10;;;6.20;81.90;;;;;;5399471;26;19995;-57
2024/04/16 03:35:22;;;;;;;3.35;2.63;;;6.10;82.50;;;;;;5390843;26;19999;-58
2024/04/16 03:37:48;;;;;;;7.78;3.15;;;6.10;82.60;;;;;;5397478;26;19996;-57
2024/04/16 03:40:13;;;;;;;4.80;2.78;;;6.10;82.70;;;;;;5388781;26;20031;-57
2024/04/16 03:42:39;;;;;;;4.05;2.10;;;6.10;83.40;;;;;;5397003;26;19999;-57
2024/04/16 03:45:05;;;;;;;6.18;2.90;;;6.10;83.20;;;;;;5395809;26;20000;-57
2024/04/16 03:47:30;;;;;;;5.03;2.47;;;6.00;83.70;;;;;;5391107;26;20362;-57
2024/04/16 03:49:56;;;;;;;6.28;3.10;;;6.00;83.80;;;;;;5399679;26;20000;-58
2024/04/16 03:52:21;;;;;;;4.43;2.67;;;6.00;83.90;;;;;;5397262;26;20014;-58
2024/04/16 03:54:47;;;;;;;4.45;2.28;;;6.00;83.90;;;;;;5396230;26;20007;-57
2024/04/16 03:57:12;;;;;;;2.65;1.98;;;6.00;84.00;;;;;;5397133;26;19999;-58
2024/04/16 04:00:59;;;;;;;5.82;2.28;;;5.90;84.20;;;;;;5397286;26;20008;-57
2024/04/16 04:02:24;;;;;;;2.10;1.47;;;5.90;84.20;;;;;;5396389;26;20019;-58
2024/04/16 04:04:50;;;;;;;5.93;2.67;;;5.90;83.90;;;;;;5395430;26;20455;-57
2024/04/16 04:07:16;;;;;;;3.47;2.20;;;5.90;83.90;;;;;;5395890;26;20023;-58
2024/04/16 04:09:42;;;;;;;3.15;1.73;;;5.80;84.30;;;;;;5388490;26;20101;-57
2024/04/16 04:12:07;;;;;;;5.60;2.25;;;5.80;84.30;;;;;;5397313;26;19999;-57
2024/04/16 04:14:33;;;;;;;3.50;2.10;;;5.80;84.40;;;;;;5396777;26;20443;-57
2024/04/16 04:16:59;;;;;;;4.20;2.03;;;5.80;84.90;;;;;;5398131;26;20471;-57
2024/04/16 04:19:24;;;;;;;1.70;1.60;;;5.80;84.90;;;;;;5395514;26;20332;-57
2024/04/16 04:21:50;;;;;;;4.30;1.60;;;5.80;85.10;;;;;;5396328;26;20014;-57
2024/04/16 04:24:17;;;;;;;5.13;2.03;;;5.80;85.10;;;;;;5396841;26;20069;-54
2024/04/16 04:26:43;;;;;;;4.97;1.98;;;5.80;84.90;;;;;;5394971;26;20004;-58
2024/04/16 04:29:09;;;;;;;5.03;2.17;;;5.80;84.80;;;;;;5389364;26;20098;-58
2024/04/16 04:31:34;;;;;;;3.70;2.03;;;5.90;84.70;;;;;;5397958;26;20016;-56
2024/04/16 04:34:00;;;;;;;5.75;1.90;;;5.90;84.80;;;;;;5396421;26;20004;-57
2024/04/16 04:36:25;;;;;;;4.53;1.73;;;5.90;84.90;;;;;;5396654;26;19995;-58
2024/04/16 04:38:51;;;;;;;4.50;2.08;;;5.90;84.80;;;;;;5396111;26;20014;-59
2024/04/16 04:41:16;;;;;;;6.00;2.22;;;5.90;84.80;;;;;;5388249;26;20078;-59
2024/04/16 04:43:42;;;;;;;3.50;2.25;;;5.90;84.80;;;;;;5395006;26;20011;-59
2024/04/16 04:46:10;;;;;;;3.03;2.05;;;5.90;85.00;;;;;;5393832;26;20460;-59
2024/04/16 04:48:36;;;;;;;3.90;2.17;;;6.00;84.90;;;;;;5398801;26;19995;-59
2024/04/16 04:51:01;;;;;;;5.40;2.33;;;6.00;84.90;;;;;;5395293;26;20097;-58
2024/04/16 04:53:27;;;;;;;4.55;2.95;;;6.00;84.90;;;;;;5396317;26;20044;-57
2024/04/16 04:55:52;;;;;;;3.30;2.05;;;6.00;84.80;;;;;;5396001;26;20075;-56
2024/04/16 04:58:18;;;;;;;4.55;2.55;;;6.10;84.70;;;;;;5397125;26;20333;-56
2024/04/16 05:00:43;;;;;;;6.68;2.40;;;6.20;84.30;;;;;;5395494;26;20011;-57
2024/04/16 05:03:09;;;;;;;5.18;2.35;;;6.30;84.10;;;;;;5397841;26;20689;-56
2024/04/16 05:05:34;;;;;;;3.13;2.53;;;6.70;83.80;;;;;;5396094;26;20076;-55
2024/04/16 05:08:00;;;;;;;4.25;2.25;;;7.60;81.40;;;;;;5395809;26;20000;-57
2024/04/16 05:10:25;;;;;;;5.53;1.92;;;8.20;79.10;;;;;;5396263;26;20367;-57
2024/04/16 05:12:52;;;;;;;3.20;1.73;;;9.30;77.20;;;;;;5395552;26;20008;-57
2024/04/16 05:15:18;;;;;;;2.20;1.55;;;9.80;74.60;;;;;;5396056;26;19999;-55
2024/04/16 05:17:44;;;;;;;1.80;1.50;;;9.70;73.80;;;;;;5398909;26;20011;-57
2024/04/16 05:20:09;;;;;;;3.90;1.85;;;9.70;72.80;;;;;;5393453;26;20003;-56
2024/04/16 05:22:35;;;;;;;3.03;1.90;;;9.90;70.60;;;;;;5395514;26;19999;-56
2024/04/16 05:25:01;;;;;;;3.72;2.13;;;9.90;71.00;;;;;;5395397;26;19995;-57
2024/04/16 05:27:26;;;;;;;4.85;1.73;;;9.60;68.80;;;;;;5395533;26;20007;-57
2024/04/16 05:29:52;;;;;;;3.47;1.88;;;9.40;70.10;;;;;;5396119;26;20208;-57
2024/04/16 05:32:17;;;;;;;5.15;2.08;;;9.30;70.70;;;;;;5395887;26;20073;-56
2024/04/16 05:34:44;;;;;;;3.70;1.90;;;9.30;69.80;;;;;;5391187;26;20003;-56
2024/04/16 05:37:10;;;;;;;5.80;2.00;;;9.20;69.80;;;;;;5395884;26;19995;-57
2024/04/16 05:39:36;;;;;;;5.55;2.47;;;9.30;69.20;;;;;;5383120;26;20452;-57
2024/04/16 05:42:02;;;;;;;7.32;1.83;;;9.10;69.70;;;;;;5377599;26;20042;-57
2024/04/16 05:44:27;;;;;;;10.02;2.60;;;8.80;70.80;;;;;;5384017;26;20007;-57
2024/04/16 05:46:54;;;;;;;4.63;2.13;;;8.40;72.70;;;;;;5380533;26;20020;-58
2024/04/16 05:49:20;;;;;;;4.20;2.45;;;8.10;74.70;;;;;;5387037;26;20273;-57
2024/04/16 05:51:46;;;;;;;5.88;1.83;;;8.00;76.10;;;;;;5384451;26;20007;-58
2024/04/16 05:54:11;;;;;;;4.82;2.50;;;7.90;77.50;;;;;;5382678;26;19999;-57
2024/04/16 05:56:37;;;;;;;3.15;1.98;;;8.00;78.00;;;;;;5386859;26;20867;-56
2024/04/16 05:59:03;;;;;;;3.40;1.90;;;8.20;78.10;;;;;;5388520;26;19999;-55
2024/04/16 06:01:29;;;;;;;4.03;1.65;;;8.40;78.30;;;;;;5380915;26;20276;-57
2024/04/16 06:03:54;;;;;;;5.43;1.73;;;8.40;77.90;;;;;;5379200;26;20671;-58
2024/04/16 06:06:19;;;;;;;3.17;1.60;;;9.30;77.00;;;;;;5389688;26;20463;-57
2024/04/16 06:08:45;;;;;;;3.40;1.90;;;10.80;73.00;;;;;;5385700;26;20483;-57
2024/04/16 06:11:10;;;;;;;3.83;2.38;;;11.30;72.10;;;;;;5379297;26;19996;-57
2024/04/16 06:13:36;;;;;;;4.53;1.85;;;11.10;71.80;;;;;;5382315;26;20006;-56
2024/04/16 06:16:02;;;;;;;3.03;1.88;;;10.90;71.90;;;;;;5389111;26;20327;-56
2024/04/16 06:18:28;;;;;;;2.72;1.70;;;10.90;71.20;;;;;;5392386;26;20038;-64
2024/04/16 06:20:54;;;;;;;5.40;2.40;;;10.80;69.70;;;;;;5387471;26;20178;-64
2024/04/16 06:23:21;;;;;;;5.70;2.45;;;10.60;69.70;;;;;;5385580;26;20011;-65
2024/04/16 06:25:47;;;;;;;5.28;2.20;;;10.20;69.80;;;;;;5381594;26;20484;-66
2024/04/16 06:28:12;;;;;;;3.85;1.67;;;9.80;71.00;;;;;;5375590;26;19996;-65
2024/04/16 06:30:38;;;;;;;2.50;1.50;;;9.60;70.80;;;;;;5380185;26;19996;-66
2024/04/16 06:33:03;;;;;;;2.15;1.75;;;9.40;71.00;;;;;;5383419;26;19991;-65
2024/04/16 06:35:29;;;;;;;2.90;2.13;;;9.30;71.40;;;;;;5383255;26;20468;-65
2024/04/16 06:37:54;;;;;;;5.88;1.70;;;9.00;71.80;;;;;;5392400;26;19992;-66
2024/04/16 06:40:20;;;;;;;3.17;1.85;;;8.80;72.50;;;;;;5378827;26;20011;-66
2024/04/16 06:42:45;;;;;;;5.25;2.20;;;8.60;73.30;;;;;;5383658;26;20433;-66
2024/04/16 06:45:11;;;;;;;6.35;2.85;;;8.50;74.20;;;;;;5377458;26;20436;-66
2024/04/16 06:47:36;;;;;;;5.05;1.73;;;8.30;74.60;;;;;;5380952;26;20206;-64
2024/04/16 06:50:02;;;;;;;4.13;1.70;;;8.20;76.10;;;;;;5387300;26;19995;-66
2024/04/16 06:52:29;;;;;;;3.45;2.10;;;8.20;76.30;;;;;;5376548;26;20000;-66
2024/04/16 06:54:55;;;;;;;3.85;2.10;;;8.20;76.30;;;;;;5377275;26;20000;-66
2024/04/16 06:57:20;;;;;;;4.35;2.50;;;8.20;77.30;;;;;;5388707;26;20335;-66
2024/04/16 06:59:46;;;;;;;6.57;2.45;;;8.10;77.60;;;;;;5378088;26;19996;-65
2024/04/16 07:02:11;;;;;;;3.00;2.25;;;8.10;78.50;;;;;;5379772;26;20007;-65
2024/04/16 07:04:37;;;;;;;2.75;2.33;;;8.00;79.00;;;;;;5382376;26;20380;-65
2024/04/16 07:07:02;;;;;;;6.15;2.70;;;7.90;80.20;;;;;;5386541;26;20032;-64
2024/04/16 07:09:28;;;;;;;6.05;2.88;;;7.90;81.30;;;;;;5381901;26;20083;-66
2024/04/16 07:11:53;;;;;;;4.50;2.50;;;7.90;81.10;;;;;;5384211;26;20383;-66
2024/04/16 07:14:19;;;;;;;4.35;2.20;;;7.90;81.20;;;;;;5377633;26;20410;-65
2024/04/16 07:16:45;;;;;;;8.15;2.22;;;7.80;81.40;;;;;;5382366;26;20006;-65
2024/04/16 07:19:10;;;;;;;4.43;2.75;;;7.80;81.80;;;;;;5373763;26;20451;-65
2024/04/16 07:21:35;;;;;;;3.63;2.60;;;7.80;82.90;;;;;;5381714;26;19996;-64
2024/04/16 07:24:01;;;;;;;3.13;2.42;;;7.70;83.00;;;;;;5381988;26;19991;-66
2024/04/16 07:26:26;;;;;;;3.30;2.38;;;7.70;83.30;;;;;;5387133;26;20000;-66
2024/04/16 07:28:52;;;;;;;4.68;2.13;;;7.60;84.50;;;;;;5389269;26;20038;-65
2024/04/16 07:31:18;;;;;;;3.88;2.00;;;7.50;85.10;;;;;;5384612;26;20059;-66
2024/04/16 07:33:44;;;;;;;4.82;2.97;;;7.50;85.00;;;;;;5386783;26;20397;-65
2024/04/16 07:36:09;;;;;;;6.50;2.45;;;7.50;86.30;;;;;;5378981;26;19999;-66
2024/04/16 07:38:35;;;;;;;4.95;2.42;;;7.50;87.70;;;;;;5389946;26;20538;-66
2024/04/16 07:41:01;;;;;;;5.88;2.80;;;7.50;87.80;;;;;;5381911;26;19992;-65
2024/04/16 07:43:26;;;;;;;6.28;2.30;;;7.50;87.50;;;;;;5385254;26;20349;-65
2024/04/16 07:45:52;;;;;;;4.90;2.63;;;7.50;87.60;;;;;;5387537;26;20003;-66
2024/04/16 07:48:17;;;;;;;6.00;2.20;;;7.60;88.30;;;;;;5386523;26;20014;-66
2024/04/16 07:50:43;;;;;;;4.78;2.30;;;7.60;87.90;;;;;;5390863;26;20329;-66
2024/04/16 07:53:09;;;;;;;3.38;2.22;;;7.60;89.10;;;;;;5388403;26;19995;-66
2024/04/16 07:55:35;;;;;;;6.03;2.45;;;7.60;89.70;;;;;;5381595;26;20493;-67
2024/04/16 07:58:01;;;;;;;4.53;2.33;;;7.60;89.40;;;;;;5385856;26;20007;-66
2024/04/16 08:00:28;;;;;;;5.88;2.30;;;7.70;90.10;;;;;;5386948;26;20312;-65
2024/04/16 08:02:54;;;;;;;8.80;2.92;;;7.80;90.20;;;;;;5383514;26;19999;-66
2024/04/16 08:05:21;;;;;;;3.50;2.20;;;8.20;89.00;;;;;;5389519;26;20004;-66
2024/04/16 08:07:46;;;;;;;3.42;2.53;;;8.40;87.90;;;;;;5393245;26;20068;-65
2024/04/16 08:10:12;;;;;;;5.55;3.20;;;8.40;87.50;;;;;;5387239;26;20733;-66
2024/04/16 08:12:37;;;;;;;5.28;2.80;;;8.30;87.60;;;;;;5383004;26;20015;-65
2024/04/16 08:15:04;;;;;;;5.45;2.58;;;8.20;88.70;;;;;;5386977;26;19995;-68
2024/04/16 08:17:30;;;;;;;7.53;3.10;;;8.20;89.30;;;;;;5386514;26;20070;-65
2024/04/16 08:19:55;;;;;;;3.63;2.65;;;8.20;89.10;;;;;;5388010;26;20003;-66
2024/04/16 08:22:20;;;;;;;5.50;2.88;;;8.30;89.30;;;;;;5387033;26;20012;-65
2024/04/16 08:24:49;;;;;;;3.33;2.38;;;8.30;89.80;;;;;;5386938;26;20031;-66
2024/04/16 08:27:14;;;;;;;4.88;2.33;;;8.50;89.40;;;;;;5380615;26;20078;-67
2024/04/16 08:29:40;;;;;;;6.70;3.15;;;8.50;88.90;;;;;;5385420;26;20007;-66
2024/04/16 08:32:05;;;;;;;7.47;2.85;;;8.60;88.50;;;;;;5382944;26;20351;-66
2024/04/16 08:34:34;;;;;;;5.80;2.70;;;8.50;88.80;;;;;;5378806;26;20048;-68
2024/04/16 08:36:59;;;;;;;4.28;2.83;;;8.50;88.40;;;;;;5390224;26;20000;-67
2024/04/16 08:39:25;;;;;;;4.18;2.72;;;8.50;88.60;;;;;;5389728;26;20014;-67
2024/04/16 08:41:53;;;;;;;6.72;2.55;;;8.50;88.70;;;;;;5381919;26;20028;-66
2024/04/16 08:44:18;;;;;;;4.07;2.35;;;8.70;88.80;;;;;;5385397;26;20072;-67
2024/04/16 08:46:45;;;;;;;6.90;2.75;;;8.70;88.30;;;;;;5383616;26;20032;-66
2024/04/16 08:49:12;;;;;;;5.53;2.33;;;8.70;88.30;;;;;;5384949;26;20012;-65
2024/04/16 08:51:38;;;;;;;5.53;2.65;;;8.70;88.60;;;;;;5393565;26;20004;-65
2024/04/16 08:54:06;;;;;;;4.13;2.30;;;9.00;88.40;;;;;;5395132;26;20351;-66
2024/04/16 08:56:35;;;;;;;6.47;2.72;;;9.40;87.50;;;;;;5380906;26;19997;-67
2024/04/16 08:59:02;;;;;;;5.68;2.33;;;9.40;86.80;;;;;;5382976;26;19996;-68
2024/04/16 09:01:28;;;;;;;5.68;2.30;;;9.30;86.60;;;;;;5388324;26;21057;-67
2024/04/16 09:03:54;;;;;;;5.10;2.60;;;8.90;86.00;;;;;;5380899;26;20468;-67
2024/04/16 09:06:20;;;;;;;7.35;2.38;;;8.70;87.10;;;;;;5389149;26;20003;-68
2024/04/16 09:08:47;;;;;;;5.15;2.10;;;8.50;87.60;;;;;;5382986;26;20457;-68
2024/04/16 09:11:13;;;;;;;5.53;2.10;;;8.40;88.40;;;;;;5381645;26;20008;-67
2024/04/16 09:13:40;;;;;;;6.07;2.70;;;8.30;88.10;;;;;;5389596;26;20086;-68
2024/04/16 09:16:06;;;;;;;7.35;2.65;;;8.20;88.30;;;;;;5386370;26;20468;-67
2024/04/16 09:18:32;;;;;;;4.97;2.97;;;8.30;88.00;;;;;;5384174;26;20074;-67
2024/04/16 09:20:58;;;;;;;7.07;2.35;;;8.30;88.00;;;;;;5382768;26;20030;-67
2024/04/16 09:23:23;;;;;;;8.63;2.80;;;8.40;88.40;;;;;;5385292;26;20019;-70
2024/04/16 09:25:49;;;;;;;3.67;2.40;;;8.60;88.20;;;;;;5389977;26;20006;-68
2024/04/16 09:28:17;;;;;;;6.82;2.25;;;8.80;87.90;;;;;;5387520;26;19999;-65
2024/04/16 09:30:56;;;;;;;5.55;2.42;;;8.80;88.00;;;;;;5393901;26;20039;-66
2024/04/16 09:33:21;;;;;;;3.78;2.35;;;9.00;87.80;;;;;;5377073;26;20659;-67
2024/04/16 09:35:47;;;;;;;7.20;2.28;;;9.00;87.40;;;;;;5384767;26;20007;-66
2024/04/16 09:38:13;;;;;;;3.85;2.15;;;9.20;87.90;;;;;;5391173;26;19999;-65
2024/04/16 09:40:39;;;;;;;4.50;2.35;;;9.50;87.90;;;;;;5382955;26;19996;-66
2024/04/16 09:43:05;;;;;;;9.95;3.50;;;10.00;86.50;;;;;;5391796;26;20047;-67
2024/04/16 09:45:31;;;;;;;5.38;2.75;;;10.50;85.00;;;;;;5386283;26;20000;-69
2024/04/16 09:47:57;;;;;;;5.53;2.78;;;11.20;83.40;;;;;;5387057;26;20110;-67
2024/04/16 09:50:24;;;;;;;2.90;2.10;;;11.80;82.50;;;;;;5388730;26;20454;-67
2024/04/16 09:52:54;;;;;;;6.18;2.38;;;12.50;79.70;;;;;;5386163;26;19999;-66
2024/04/16 09:55:21;;;;;;;7.82;2.40;;;12.80;77.50;;;;;;5384121;26;20032;-66
2024/04/16 09:57:48;;;;;;;7.35;2.13;;;12.80;76.40;;;;;;5390356;26;20471;-66
2024/04/16 10:00:14;;;;;;;3.30;2.00;;;13.00;77.10;;;;;;5387143;26;20014;-66
2024/04/16 10:02:42;;;;;;;6.80;2.13;;;13.10;74.70;;;;;;5382930;26;20004;-66
2024/04/16 10:05:10;;;;;;;5.18;1.75;;;13.10;74.10;;;;;;5394567;26;20014;-66
2024/04/16 10:07:37;;;;;;;5.53;2.05;;;13.20;74.60;;;;;;5373650;26;20008;-66
2024/04/16 10:10:04;;;;;;;6.05;2.17;;;12.90;72.40;;;;;;5385914;26;20000;-67
2024/04/16 10:12:32;;;;;;;4.93;2.22;;;12.60;72.40;;;;;;5382591;26;20374;-66
2024/04/16 10:14:58;;;;;;;5.22;1.67;;;12.30;71.80;;;;;;5385185;26;20010;-67
2024/04/16 10:17:25;;;;;;;4.97;2.15;;;12.20;71.40;;;;;;5386399;26;20668;-66
2024/04/16 10:19:51;;;;;;;9.20;2.58;;;12.30;71.40;;;;;;5379839;26;20040;-66
2024/04/16 10:22:17;;;;;;;3.35;1.60;;;12.50;69.90;;;;;;5388286;26;20003;-66
2024/04/16 10:24:53;;;;;;;4.65;1.85;;;12.80;70.20;;;;;;5386652;26;20062;-66
2024/04/16 10:27:30;;;;;;;9.90;1.85;;;12.90;69.30;;;;;;5385852;26;20800;-66
2024/04/16 10:30:11;;;;;;;4.70;2.03;;;12.70;68.30;;;;;;5379703;26;19995;-66
2024/04/16 10:33:04;;;;;;;5.93;1.90;;;12.40;68.30;;;;;;5385006;26;20035;-65
2024/04/16 10:35:32;;;;;;;8.35;2.13;;;12.10;68.20;;;;;;5372961;26;19996;-66
2024/04/16 10:37:57;;;;;;;6.13;2.20;;;12.30;69.50;;;;;;5388030;26;20010;-65
2024/04/16 10:40:30;;;;;;;4.40;2.25;;;12.50;67.60;;;;;;5376423;26;20425;-66
2024/04/16 10:42:56;;;;;;;5.28;1.55;;;12.80;66.20;;;;;;5384074;26;20022;-67
2024/04/16 10:45:22;;;;;;;3.42;1.52;;;12.90;66.20;;;;;;5389622;26;20000;-66
2024/04/16 10:47:52;;;;;;;6.30;1.70;;;13.00;65.30;;;;;;5384031;26;20057;-66
2024/04/16 10:50:18;;;;;;;4.97;1.85;;;13.10;63.20;;;;;;5379058;26;20887;-67
2024/04/16 10:52:43;;;;;;;6.95;2.25;;;13.30;61.40;;;;;;5379828;26;20053;-67
2024/04/16 10:55:09;;;;;;;7.65;1.90;;;13.60;61.30;;;;;;5377894;26;20341;-66
2024/04/16 10:57:35;;;;;;;3.85;1.63;;;13.80;56.10;;;;;;5381340;26;20070;-65
2024/04/16 11:00:01;;;;;;;5.85;1.55;;;14.00;58.40;;;;;;5388080;26;20011;-66
2024/04/16 11:02:27;;;;;;;4.65;1.45;;;14.20;57.60;;;;;;5383455;26;20004;-66
2024/04/16 11:04:53;;;;;;;6.80;2.10;;;14.40;55.90;;;;;;5393948;26;20632;-65
2024/04/16 11:07:18;;;;;;;6.60;1.90;;;14.30;53.60;;;;;;5381265;26;20373;-66
2024/04/16 11:09:44;;;;;;;8.35;2.28;;;14.30;54.00;;;;;;5388099;26;20076;-65
2024/04/16 11:12:11;;;;;;;5.32;2.00;;;14.30;53.30;;;;;;5388963;26;20105;-65
2024/04/16 11:14:36;;;;;;;5.38;1.80;;;14.30;53.00;;;;;;5388475;26;20007;-67
2024/04/16 11:17:03;;;;;;;6.65;1.83;;;14.10;52.30;;;;;;5388672;26;20003;-66
2024/04/16 11:19:29;;;;;;;6.10;1.48;;;14.10;52.20;;;;;;5379712;26;20128;-67
2024/04/16 11:21:55;;;;;;;3.97;1.50;;;14.10;51.50;;;;;;5380095;26;20490;-67
2024/04/16 11:24:22;;;;;;;4.65;1.13;;;14.10;50.30;;;;;;5383075;26;20008;-66
2024/04/16 11:26:48;;;;;;;4.80;1.35;;;14.00;49.10;;;;;;5387567;26;20004;-67
2024/04/16 11:29:17;;;;;;;3.60;1.60;;;14.10;48.60;;;;;;5381007;26;19999;-67
2024/04/16 11:31:43;;;;;;;4.88;1.20;;;14.20;46.50;;;;;;5384513;26;20028;-66
2024/04/16 11:34:09;;;;;;;5.35;1.80;;;14.10;45.50;;;;;;5392315;26;20014;-67
2024/04/16 11:36:34;;;;;;;4.45;1.20;;;14.00;45.00;;;;;;5386183;26;20010;-66
2024/04/16 11:39:00;;;;;;;3.15;1.13;;;13.80;43.70;;;;;;5377968;26;20019;-65
2024/04/16 11:41:28;;;;;;;3.25;1.15;;;13.70;44.20;;;;;;5386599;26;20004;-67
2024/04/16 11:43:54;;;;;;;3.40;1.20;;;13.50;44.30;;;;;;5384920;26;20023;-66
2024/04/16 11:46:20;;;;;;;1.70;1.02;;;13.20;42.60;;;;;;5384034;26;20000;-66
2024/04/16 11:48:48;;;;;;;4.45;1.33;;;12.70;44.50;;;;;;5387665;26;20015;-66
2024/04/16 11:51:13;;;;;;;5.82;1.08;;;12.30;46.70;;;;;;5387992;26;20014;-67
2024/04/16 11:53:40;;;;;;;2.92;1.42;;;12.10;48.30;;;;;;5385187;26;20403;-67
2024/04/16 11:56:06;;;;;;;2.92;0.90;;;11.90;49.00;;;;;;5386029;26;20081;-67
2024/04/16 11:58:31;;;;;;;2.50;1.02;;;11.90;49.30;;;;;;5382693;26;19999;-67
2024/04/16 12:00:57;;;;;;;2.50;0.98;;;11.90;49.40;;;;;;5387367;26;20054;-66
2024/04/16 12:03:23;;;;;;;3.40;1.02;;;12.00;49.10;;;;;;5379792;26;20014;-66
2024/04/16 12:05:48;;;;;;;4.90;1.35;;;12.20;48.80;;;;;;5388036;26;20011;-66
2024/04/16 12:08:14;;;;;;;3.58;1.17;;;12.40;48.00;;;;;;5384357;26;20010;-67
2024/04/16 12:10:39;;;;;;;1.48;0.90;;;12.70;47.50;;;;;;5383221;26;20000;-70
2024/04/16 12:13:05;;;;;;;2.00;1.02;;;13.00;47.30;;;;;;5388056;26;19999;-68
2024/04/16 12:15:30;;;;;;;4.00;1.13;;;13.30;46.30;;;;;;5391868;26;19996;-65
2024/04/16 12:17:56;;;;;;;3.58;1.13;;;13.60;45.70;;;;;;5379479;26;19995;-67
2024/04/16 12:20:21;;;;;;;1.73;1.00;;;13.60;43.40;;;;;;5382691;26;19995;-66
2024/04/16 12:22:47;;;;;;;4.60;1.10;;;13.70;43.20;;;;;;5385036;26;20004;-68
2024/04/16 12:25:12;;;;;;;2.85;0.98;;;13.80;42.60;;;;;;5388802;26;20015;-62
2024/04/16 12:27:38;;;;;;;2.65;1.17;;;13.90;43.00;;;;;;5378831;26;20000;-59
2024/04/16 12:30:04;;;;;;;4.20;1.10;;;14.10;42.80;;;;;;5392337;26;20011;-59
2024/04/16 12:32:29;;;;;;;4.22;1.10;;;14.20;42.30;;;;;;5386770;26;20003;-59
2024/04/16 12:34:55;;;;;;;3.22;0.90;;;14.20;41.60;;;;;;5388601;26;20000;-60
2024/04/16 12:37:20;;;;;;;4.15;1.10;;;14.20;41.50;;;;;;5390343;26;19999;-59
2024/04/16 12:39:46;;;;;;;2.78;1.10;;;14.00;40.30;;;;;;5381328;26;20011;-59
2024/04/16 12:42:11;;;;;;;1.73;0.90;;;13.90;40.70;;;;;;5382164;26;20348;-58
2024/04/16 12:44:36;;;;;;;2.85;1.10;;;13.70;40.70;;;;;;5386780;26;20026;-58
2024/04/16 12:47:02;;;;;;;6.20;1.73;;;13.60;40.80;;;;;;5384210;26;20439;-59
2024/04/16 12:49:28;;;;;;;3.65;1.17;;;13.40;40.70;;;;;;5386511;26;20027;-59